sensor_id;sensor_type;location;lat;lon;timestamp;temperature;humidity
21627;DHT22;10975;47.872;12.972;2023-05-02T00:00:00;12.00;99.90
21627;DHT22;10975;47.872;12.972;2023-05-02T00:02:28;12.00;99.90
21627;DHT22;10975;47.872;12.972;2023-05-02T00:04:55;12.00;99.90
21627;DHT22;10975;47.872;12.972;2023-05-02T00:07:22;12.00;99.90
21627;DHT22;10975;47.872;12.972;2023-05-02T00:09:48;12.00;99.90
21627;DHT22;10975;47.872;12.972;2023-05-02T00:12:15;12.00;99.90
21627;DHT22;10975;47.872;12.972;2023-05-02T00:14:42;12.00;99.90
21627;DHT22;10975;47.872;12.972;2023-05-02T00:17:14;12.00;99.90
21627;DHT22;10975;47.872;12.972;2023-05-02T00:19:42;11.90;99.90
21627;DHT22;10975;47.872;12.972;2023-05-02T00:22:09;11.90;99.90
21627;DHT22;10975;47.872;12.972;2023-05-02T00:24:36;11.90;99.90
21627;DHT22;10975;47.872;12.972;2023-05-02T00:27:03;11.90;99.90
21627;DHT22;10975;47.872;12.972;2023-05-02T00:29:30;11.80;99.90
21627;DHT22;10975;47.872;12.972;2023-05-02T00:31:57;11.80;99.90
21627;DHT22;10975;47.872;12.972;2023-05-02T00:34:27;11.80;99.90
21627;DHT22;10975;47.872;12.972;2023-05-02T00:36:54;11.80;99.90
21627;DHT22;10975;47.872;12.972;2023-05-02T00:39:21;11.70;99.90
21627;DHT22;10975;47.872;12.972;2023-05-02T00:41:48;11.70;99.90
21627;DHT22;10975;47.872;12.972;2023-05-02T00:44:14;11.60;99.90
21627;DHT22;10975;47.872;12.972;2023-05-02T00:46:41;11.60;99.90
21627;DHT22;10975;47.872;12.972;2023-05-02T00:49:08;11.60;99.90
21627;DHT22;10975;47.872;12.972;2023-05-02T00:51:35;11.60;99.90
21627;DHT22;10975;47.872;12.972;2023-05-02T00:54:02;11.70;99.90
21627;DHT22;10975;47.872;12.972;2023-05-02T00:56:29;11.70;99.90
21627;DHT22;10975;47.872;12.972;2023-05-02T00:58:56;11.70;99.90
21627;DHT22;10975;47.872;12.972;2023-05-02T01:09:14;11.60;99.90
21627;DHT22;10975;47.872;12.972;2023-05-02T01:11:43;11.60;99.90
21627;DHT22;10975;47.872;12.972;2023-05-02T01:14:13;11.60;99.90
21627;DHT22;10975;47.872;12.972;2023-05-02T01:16:40;11.60;99.90
21627;DHT22;10975;47.872;12.972;2023-05-02T01:19:11;11.60;99.90
21627;DHT22;10975;47.872;12.972;2023-05-02T01:21:39;11.60;99.90
21627;DHT22;10975;47.872;12.972;2023-05-02T01:24:11;11.60;99.90
21627;DHT22;10975;47.872;12.972;2023-05-02T01:27:42;11.60;99.90
21627;DHT22;10975;47.872;12.972;2023-05-02T01:29:37;11.60;99.90
21627;DHT22;10975;47.872;12.972;2023-05-02T01:32:05;11.60;99.90
21627;DHT22;10975;47.872;12.972;2023-05-02T01:34:33;11.60;99.90
21627;DHT22;10975;47.872;12.972;2023-05-02T01:37:01;11.60;99.90
21627;DHT22;10975;47.872;12.972;2023-05-02T01:39:29;11.60;99.90
21627;DHT22;10975;47.872;12.972;2023-05-02T01:41:56;11.70;99.90
21627;DHT22;10975;47.872;12.972;2023-05-02T01:44:23;11.70;99.90
21627;DHT22;10975;47.872;12.972;2023-05-02T01:46:52;11.70;99.90
21627;DHT22;10975;47.872;12.972;2023-05-02T01:49:20;11.70;99.90
21627;DHT22;10975;47.872;12.972;2023-05-02T01:51:48;11.70;99.90
21627;DHT22;10975;47.872;12.972;2023-05-02T01:54:16;11.70;99.90
21627;DHT22;10975;47.872;12.972;2023-05-02T01:56:43;11.70;99.90
21627;DHT22;10975;47.872;12.972;2023-05-02T01:59:15;11.70;99.90
21627;DHT22;10975;47.872;12.972;2023-05-02T02:01:43;11.70;99.90
21627;DHT22;10975;47.872;12.972;2023-05-02T02:04:11;11.70;99.90
21627;DHT22;10975;47.872;12.972;2023-05-02T02:06:40;11.70;99.90
21627;DHT22;10975;47.872;12.972;2023-05-02T02:09:09;11.70;99.90
21627;DHT22;10975;47.872;12.972;2023-05-02T02:11:36;11.70;99.90
21627;DHT22;10975;47.872;12.972;2023-05-02T02:14:06;11.70;99.90
21627;DHT22;10975;47.872;12.972;2023-05-02T02:16:37;11.80;99.90
21627;DHT22;10975;47.872;12.972;2023-05-02T02:19:06;11.70;99.90
21627;DHT22;10975;47.872;12.972;2023-05-02T02:21:33;11.80;99.90
21627;DHT22;10975;47.872;12.972;2023-05-02T02:24:01;11.80;99.90
21627;DHT22;10975;47.872;12.972;2023-05-02T02:26:29;11.70;99.90
21627;DHT22;10975;47.872;12.972;2023-05-02T02:28:56;11.70;99.90
21627;DHT22;10975;47.872;12.972;2023-05-02T02:31:22;11.70;99.90
21627;DHT22;10975;47.872;12.972;2023-05-02T02:33:51;11.70;99.90
21627;DHT22;10975;47.872;12.972;2023-05-02T02:36:22;11.70;99.90
21627;DHT22;10975;47.872;12.972;2023-05-02T02:38:53;11.70;99.90
21627;DHT22;10975;47.872;12.972;2023-05-02T02:41:26;11.70;99.90
21627;DHT22;10975;47.872;12.972;2023-05-02T02:44:41;11.70;99.90
21627;DHT22;10975;47.872;12.972;2023-05-02T02:54:50;11.70;99.90
21627;DHT22;10975;47.872;12.972;2023-05-02T02:57:21;11.70;99.90
21627;DHT22;10975;47.872;12.972;2023-05-02T02:59:56;11.70;99.90
21627;DHT22;10975;47.872;12.972;2023-05-02T03:02:25;11.70;99.90
21627;DHT22;10975;47.872;12.972;2023-05-02T03:04:53;11.60;99.90
21627;DHT22;10975;47.872;12.972;2023-05-02T03:07:21;11.60;99.90
21627;DHT22;10975;47.872;12.972;2023-05-02T03:09:48;11.50;99.90
21627;DHT22;10975;47.872;12.972;2023-05-02T03:12:15;11.50;99.90
21627;DHT22;10975;47.872;12.972;2023-05-02T03:14:41;11.60;99.90
21627;DHT22;10975;47.872;12.972;2023-05-02T03:17:09;11.60;99.90
21627;DHT22;10975;47.872;12.972;2023-05-02T03:19:36;11.50;99.90
21627;DHT22;10975;47.872;12.972;2023-05-02T03:22:03;11.50;99.90
21627;DHT22;10975;47.872;12.972;2023-05-02T03:24:29;11.50;99.90
21627;DHT22;10975;47.872;12.972;2023-05-02T03:26:57;11.50;99.90
21627;DHT22;10975;47.872;12.972;2023-05-02T03:29:25;11.50;99.90
21627;DHT22;10975;47.872;12.972;2023-05-02T03:31:51;11.50;99.90
21627;DHT22;10975;47.872;12.972;2023-05-02T03:34:18;11.50;99.90
21627;DHT22;10975;47.872;12.972;2023-05-02T03:36:47;11.60;99.90
21627;DHT22;10975;47.872;12.972;2023-05-02T03:39:14;11.60;99.90
21627;DHT22;10975;47.872;12.972;2023-05-02T03:41:41;11.50;99.90
21627;DHT22;10975;47.872;12.972;2023-05-02T03:44:09;11.50;99.90
21627;DHT22;10975;47.872;12.972;2023-05-02T03:46:36;11.50;99.90
21627;DHT22;10975;47.872;12.972;2023-05-02T03:49:02;11.50;99.90
21627;DHT22;10975;47.872;12.972;2023-05-02T03:51:29;11.50;99.90
21627;DHT22;10975;47.872;12.972;2023-05-02T03:53:56;11.50;99.90
21627;DHT22;10975;47.872;12.972;2023-05-02T03:56:23;11.50;99.90
21627;DHT22;10975;47.872;12.972;2023-05-02T03:58:50;11.50;99.90
21627;DHT22;10975;47.872;12.972;2023-05-02T04:01:17;11.50;99.90
21627;DHT22;10975;47.872;12.972;2023-05-02T04:03:44;11.60;99.90
21627;DHT22;10975;47.872;12.972;2023-05-02T04:06:11;11.60;99.90
21627;DHT22;10975;47.872;12.972;2023-05-02T04:08:38;11.60;99.90
21627;DHT22;10975;47.872;12.972;2023-05-02T04:11:05;11.60;99.90
21627;DHT22;10975;47.872;12.972;2023-05-02T04:13:32;11.60;99.90
21627;DHT22;10975;47.872;12.972;2023-05-02T04:15:59;11.60;99.90
21627;DHT22;10975;47.872;12.972;2023-05-02T04:18:26;11.60;99.90
21627;DHT22;10975;47.872;12.972;2023-05-02T04:20:52;11.60;99.90
21627;DHT22;10975;47.872;12.972;2023-05-02T04:23:19;11.60;99.90
21627;DHT22;10975;47.872;12.972;2023-05-02T04:25:49;11.50;99.90
21627;DHT22;10975;47.872;12.972;2023-05-02T04:28:16;11.50;99.90
21627;DHT22;10975;47.872;12.972;2023-05-02T04:30:43;11.40;99.90
21627;DHT22;10975;47.872;12.972;2023-05-02T04:33:09;11.40;99.90
21627;DHT22;10975;47.872;12.972;2023-05-02T04:35:40;11.40;99.90
21627;DHT22;10975;47.872;12.972;2023-05-02T04:38:07;11.40;99.90
21627;DHT22;10975;47.872;12.972;2023-05-02T04:40:34;11.50;99.90
21627;DHT22;10975;47.872;12.972;2023-05-02T04:43:01;11.50;99.90
21627;DHT22;10975;47.872;12.972;2023-05-02T04:45:28;11.50;99.90
21627;DHT22;10975;47.872;12.972;2023-05-02T04:47:55;11.50;99.90
21627;DHT22;10975;47.872;12.972;2023-05-02T04:50:22;11.50;99.90
21627;DHT22;10975;47.872;12.972;2023-05-02T04:52:49;11.50;99.90
21627;DHT22;10975;47.872;12.972;2023-05-02T04:55:15;11.60;99.90
21627;DHT22;10975;47.872;12.972;2023-05-02T04:57:42;11.60;99.90
21627;DHT22;10975;47.872;12.972;2023-05-02T05:00:09;11.60;99.90
21627;DHT22;10975;47.872;12.972;2023-05-02T05:02:36;11.60;99.90
21627;DHT22;10975;47.872;12.972;2023-05-02T05:05:05;11.60;99.90
21627;DHT22;10975;47.872;12.972;2023-05-02T05:07:31;11.50;99.90
21627;DHT22;10975;47.872;12.972;2023-05-02T05:09:58;11.50;99.90
21627;DHT22;10975;47.872;12.972;2023-05-02T05:12:25;11.40;99.90
21627;DHT22;10975;47.872;12.972;2023-05-02T05:14:52;11.40;99.90
21627;DHT22;10975;47.872;12.972;2023-05-02T05:17:19;11.40;99.90
21627;DHT22;10975;47.872;12.972;2023-05-02T05:19:45;11.50;99.90
21627;DHT22;10975;47.872;12.972;2023-05-02T05:22:12;11.50;99.90
21627;DHT22;10975;47.872;12.972;2023-05-02T05:24:39;11.60;99.90
21627;DHT22;10975;47.872;12.972;2023-05-02T05:27:06;11.60;99.90
21627;DHT22;10975;47.872;12.972;2023-05-02T05:29:32;11.60;99.90
21627;DHT22;10975;47.872;12.972;2023-05-02T05:31:59;11.70;99.90
21627;DHT22;10975;47.872;12.972;2023-05-02T05:34:26;11.70;99.90
21627;DHT22;10975;47.872;12.972;2023-05-02T05:36:52;11.70;99.90
21627;DHT22;10975;47.872;12.972;2023-05-02T05:39:19;11.70;99.90
21627;DHT22;10975;47.872;12.972;2023-05-02T05:41:46;11.70;99.90
21627;DHT22;10975;47.872;12.972;2023-05-02T05:44:13;11.80;99.90
21627;DHT22;10975;47.872;12.972;2023-05-02T05:46:40;11.80;99.90
21627;DHT22;10975;47.872;12.972;2023-05-02T05:49:06;11.80;99.90
21627;DHT22;10975;47.872;12.972;2023-05-02T05:51:34;11.80;99.90
21627;DHT22;10975;47.872;12.972;2023-05-02T05:54:00;11.80;99.90
21627;DHT22;10975;47.872;12.972;2023-05-02T05:56:27;11.80;99.90
21627;DHT22;10975;47.872;12.972;2023-05-02T05:58:54;11.80;99.90
21627;DHT22;10975;47.872;12.972;2023-05-02T06:01:21;11.90;99.90
21627;DHT22;10975;47.872;12.972;2023-05-02T06:03:48;11.90;99.90
21627;DHT22;10975;47.872;12.972;2023-05-02T06:06:15;11.90;99.90
21627;DHT22;10975;47.872;12.972;2023-05-02T06:08:42;11.90;99.90
21627;DHT22;10975;47.872;12.972;2023-05-02T06:11:09;11.90;99.90
21627;DHT22;10975;47.872;12.972;2023-05-02T06:13:38;12.00;99.90
21627;DHT22;10975;47.872;12.972;2023-05-02T06:16:05;12.00;99.90
21627;DHT22;10975;47.872;12.972;2023-05-02T06:18:32;11.90;99.90
21627;DHT22;10975;47.872;12.972;2023-05-02T06:21:02;12.00;99.90
21627;DHT22;10975;47.872;12.972;2023-05-02T06:23:29;12.10;99.90
21627;DHT22;10975;47.872;12.972;2023-05-02T06:26:00;12.10;99.90
21627;DHT22;10975;47.872;12.972;2023-05-02T06:28:27;12.10;99.90
21627;DHT22;10975;47.872;12.972;2023-05-02T06:30:57;12.10;99.90
21627;DHT22;10975;47.872;12.972;2023-05-02T06:33:25;12.20;99.90
21627;DHT22;10975;47.872;12.972;2023-05-02T06:35:51;12.20;99.90
21627;DHT22;10975;47.872;12.972;2023-05-02T06:38:19;12.30;99.90
21627;DHT22;10975;47.872;12.972;2023-05-02T06:40:46;12.30;99.90
21627;DHT22;10975;47.872;12.972;2023-05-02T06:43:13;12.30;99.90
21627;DHT22;10975;47.872;12.972;2023-05-02T06:45:39;12.40;99.90
21627;DHT22;10975;47.872;12.972;2023-05-02T06:48:06;12.40;99.90
21627;DHT22;10975;47.872;12.972;2023-05-02T06:50:33;12.50;99.90
21627;DHT22;10975;47.872;12.972;2023-05-02T06:53:00;12.40;99.90
21627;DHT22;10975;47.872;12.972;2023-05-02T06:55:27;12.40;99.90
21627;DHT22;10975;47.872;12.972;2023-05-02T06:57:54;12.40;99.90
21627;DHT22;10975;47.872;12.972;2023-05-02T07:00:20;12.40;99.90
21627;DHT22;10975;47.872;12.972;2023-05-02T07:02:48;12.40;99.90
21627;DHT22;10975;47.872;12.972;2023-05-02T07:05:15;12.50;99.90
21627;DHT22;10975;47.872;12.972;2023-05-02T07:07:42;12.50;99.90
21627;DHT22;10975;47.872;12.972;2023-05-02T07:10:09;12.60;99.90
21627;DHT22;10975;47.872;12.972;2023-05-02T07:12:36;12.60;99.90
21627;DHT22;10975;47.872;12.972;2023-05-02T07:15:04;12.60;99.90
21627;DHT22;10975;47.872;12.972;2023-05-02T07:17:31;12.60;99.90
21627;DHT22;10975;47.872;12.972;2023-05-02T07:19:58;12.70;99.90
21627;DHT22;10975;47.872;12.972;2023-05-02T07:22:25;12.70;99.90
21627;DHT22;10975;47.872;12.972;2023-05-02T07:24:59;12.80;99.90
21627;DHT22;10975;47.872;12.972;2023-05-02T07:27:26;12.80;99.90
21627;DHT22;10975;47.872;12.972;2023-05-02T07:29:53;12.80;99.90
21627;DHT22;10975;47.872;12.972;2023-05-02T07:32:20;12.90;99.90
21627;DHT22;10975;47.872;12.972;2023-05-02T07:34:53;13.00;99.90
21627;DHT22;10975;47.872;12.972;2023-05-02T07:37:20;13.00;99.90
21627;DHT22;10975;47.872;12.972;2023-05-02T07:39:47;13.10;99.90
21627;DHT22;10975;47.872;12.972;2023-05-02T07:42:14;13.20;99.90
21627;DHT22;10975;47.872;12.972;2023-05-02T07:44:40;13.20;99.90
21627;DHT22;10975;47.872;12.972;2023-05-02T07:47:07;13.10;99.90
21627;DHT22;10975;47.872;12.972;2023-05-02T07:49:34;13.20;99.90
21627;DHT22;10975;47.872;12.972;2023-05-02T07:52:03;13.20;99.90
21627;DHT22;10975;47.872;12.972;2023-05-02T07:54:30;13.30;99.90
21627;DHT22;10975;47.872;12.972;2023-05-02T07:56:56;13.40;99.90
21627;DHT22;10975;47.872;12.972;2023-05-02T07:59:28;13.30;99.90
21627;DHT22;10975;47.872;12.972;2023-05-02T08:01:55;13.50;99.90
21627;DHT22;10975;47.872;12.972;2023-05-02T08:04:22;13.70;99.90
21627;DHT22;10975;47.872;12.972;2023-05-02T08:06:49;13.80;99.90
21627;DHT22;10975;47.872;12.972;2023-05-02T08:09:16;14.00;99.90
21627;DHT22;10975;47.872;12.972;2023-05-02T08:11:43;14.10;99.90
21627;DHT22;10975;47.872;12.972;2023-05-02T08:14:10;14.00;99.90
21627;DHT22;10975;47.872;12.972;2023-05-02T08:16:36;14.00;99.90
21627;DHT22;10975;47.872;12.972;2023-05-02T08:19:03;13.90;99.90
21627;DHT22;10975;47.872;12.972;2023-05-02T08:21:30;13.90;99.90
21627;DHT22;10975;47.872;12.972;2023-05-02T08:23:57;13.70;99.90
21627;DHT22;10975;47.872;12.972;2023-05-02T08:26:24;13.80;99.90
21627;DHT22;10975;47.872;12.972;2023-05-02T08:28:51;13.80;99.90
21627;DHT22;10975;47.872;12.972;2023-05-02T08:31:18;13.90;99.90
21627;DHT22;10975;47.872;12.972;2023-05-02T08:33:45;13.90;99.90
21627;DHT22;10975;47.872;12.972;2023-05-02T08:36:13;14.00;99.90
21627;DHT22;10975;47.872;12.972;2023-05-02T08:38:40;14.10;99.90
21627;DHT22;10975;47.872;12.972;2023-05-02T08:41:13;14.20;99.90
21627;DHT22;10975;47.872;12.972;2023-05-02T08:43:39;14.30;99.90
21627;DHT22;10975;47.872;12.972;2023-05-02T08:46:06;14.20;99.90
21627;DHT22;10975;47.872;12.972;2023-05-02T08:48:35;14.20;99.90
21627;DHT22;10975;47.872;12.972;2023-05-02T08:51:02;14.50;99.90
21627;DHT22;10975;47.872;12.972;2023-05-02T08:53:30;14.80;99.90
21627;DHT22;10975;47.872;12.972;2023-05-02T08:55:57;14.90;99.90
21627;DHT22;10975;47.872;12.972;2023-05-02T08:58:25;15.20;99.90
21627;DHT22;10975;47.872;12.972;2023-05-02T09:00:52;15.30;99.90
21627;DHT22;10975;47.872;12.972;2023-05-02T09:03:28;15.50;99.90
21627;DHT22;10975;47.872;12.972;2023-05-02T09:08:36;15.60;99.90
21627;DHT22;10975;47.872;12.972;2023-05-02T09:11:03;15.70;99.90
21627;DHT22;10975;47.872;12.972;2023-05-02T09:16:10;16.00;99.90
21627;DHT22;10975;47.872;12.972;2023-05-02T09:18:40;16.20;99.90
21627;DHT22;10975;47.872;12.972;2023-05-02T09:21:17;16.30;99.90
21627;DHT22;10975;47.872;12.972;2023-05-02T09:23:47;16.40;99.90
21627;DHT22;10975;47.872;12.972;2023-05-02T09:28:52;16.50;99.90
21627;DHT22;10975;47.872;12.972;2023-05-02T09:31:21;16.50;99.90
21627;DHT22;10975;47.872;12.972;2023-05-02T09:33:51;16.50;99.90
21627;DHT22;10975;47.872;12.972;2023-05-02T09:36:18;16.40;99.90
21627;DHT22;10975;47.872;12.972;2023-05-02T09:38:46;16.30;99.90
21627;DHT22;10975;47.872;12.972;2023-05-02T09:41:12;16.30;99.90
21627;DHT22;10975;47.872;12.972;2023-05-02T09:43:39;16.30;99.90
21627;DHT22;10975;47.872;12.972;2023-05-02T09:46:07;16.20;99.90
21627;DHT22;10975;47.872;12.972;2023-05-02T09:51:37;15.80;99.90
21627;DHT22;10975;47.872;12.972;2023-05-02T09:54:03;15.70;99.90
21627;DHT22;10975;47.872;12.972;2023-05-02T09:56:30;15.50;99.90
21627;DHT22;10975;47.872;12.972;2023-05-02T09:59:15;15.70;99.90
21627;DHT22;10975;47.872;12.972;2023-05-02T10:01:42;15.80;99.90
21627;DHT22;10975;47.872;12.972;2023-05-02T10:04:10;15.90;99.90
21627;DHT22;10975;47.872;12.972;2023-05-02T10:06:42;15.90;99.90
21627;DHT22;10975;47.872;12.972;2023-05-02T10:09:09;16.00;99.90
21627;DHT22;10975;47.872;12.972;2023-05-02T10:11:45;16.00;99.90
21627;DHT22;10975;47.872;12.972;2023-05-02T10:14:12;15.90;99.90
21627;DHT22;10975;47.872;12.972;2023-05-02T10:16:45;15.80;99.90
21627;DHT22;10975;47.872;12.972;2023-05-02T10:19:13;15.80;99.90
21627;DHT22;10975;47.872;12.972;2023-05-02T10:21:43;15.80;99.90
21627;DHT22;10975;47.872;12.972;2023-05-02T10:24:10;15.90;99.90
21627;DHT22;10975;47.872;12.972;2023-05-02T10:26:37;15.90;99.90
21627;DHT22;10975;47.872;12.972;2023-05-02T10:29:04;16.00;99.90
21627;DHT22;10975;47.872;12.972;2023-05-02T10:31:32;16.30;99.90
21627;DHT22;10975;47.872;12.972;2023-05-02T10:33:59;16.50;99.90
21627;DHT22;10975;47.872;12.972;2023-05-02T10:36:27;16.40;99.90
21627;DHT22;10975;47.872;12.972;2023-05-02T10:38:54;16.10;99.90
21627;DHT22;10975;47.872;12.972;2023-05-02T10:41:21;16.10;99.90
21627;DHT22;10975;47.872;12.972;2023-05-02T10:43:49;15.90;99.90
21627;DHT22;10975;47.872;12.972;2023-05-02T10:46:29;15.90;99.90
21627;DHT22;10975;47.872;12.972;2023-05-02T10:49:03;16.10;99.90
21627;DHT22;10975;47.872;12.972;2023-05-02T10:51:30;16.20;99.90
21627;DHT22;10975;47.872;12.972;2023-05-02T10:59:26;16.30;99.90
21627;DHT22;10975;47.872;12.972;2023-05-02T11:01:53;16.40;99.90
21627;DHT22;10975;47.872;12.972;2023-05-02T11:04:19;16.50;99.90
21627;DHT22;10975;47.872;12.972;2023-05-02T11:11:53;15.90;99.90
21627;DHT22;10975;47.872;12.972;2023-05-02T11:19:23;15.80;99.90
21627;DHT22;10975;47.872;12.972;2023-05-02T11:21:50;15.80;99.90
21627;DHT22;10975;47.872;12.972;2023-05-02T11:24:36;15.80;99.90
21627;DHT22;10975;47.872;12.972;2023-05-02T11:29:52;15.90;99.90
21627;DHT22;10975;47.872;12.972;2023-05-02T11:32:19;15.90;99.90
21627;DHT22;10975;47.872;12.972;2023-05-02T11:34:46;15.80;99.90
21627;DHT22;10975;47.872;12.972;2023-05-02T11:37:13;15.80;99.90
21627;DHT22;10975;47.872;12.972;2023-05-02T11:39:41;15.90;99.90
21627;DHT22;10975;47.872;12.972;2023-05-02T11:42:08;16.10;99.90
21627;DHT22;10975;47.872;12.972;2023-05-02T11:44:53;16.20;99.90
21627;DHT22;10975;47.872;12.972;2023-05-02T11:47:20;16.40;99.90
21627;DHT22;10975;47.872;12.972;2023-05-02T11:49:47;16.40;99.90
21627;DHT22;10975;47.872;12.972;2023-05-02T11:52:14;16.40;99.90
21627;DHT22;10975;47.872;12.972;2023-05-02T11:54:41;16.30;99.90
21627;DHT22;10975;47.872;12.972;2023-05-02T11:57:08;16.30;99.90
21627;DHT22;10975;47.872;12.972;2023-05-02T12:02:17;16.40;99.90
21627;DHT22;10975;47.872;12.972;2023-05-02T12:04:44;16.40;99.90
21627;DHT22;10975;47.872;12.972;2023-05-02T12:07:11;16.20;99.90
21627;DHT22;10975;47.872;12.972;2023-05-02T12:09:50;16.30;99.90
21627;DHT22;10975;47.872;12.972;2023-05-02T12:12:19;16.20;99.90
21627;DHT22;10975;47.872;12.972;2023-05-02T12:14:45;15.90;99.90
21627;DHT22;10975;47.872;12.972;2023-05-02T12:17:12;15.80;99.90
21627;DHT22;10975;47.872;12.972;2023-05-02T12:19:39;15.90;99.90
21627;DHT22;10975;47.872;12.972;2023-05-02T12:22:05;15.90;99.90
21627;DHT22;10975;47.872;12.972;2023-05-02T12:24:33;15.90;99.90
21627;DHT22;10975;47.872;12.972;2023-05-02T12:27:14;16.10;99.90
21627;DHT22;10975;47.872;12.972;2023-05-02T12:29:46;16.20;99.90
21627;DHT22;10975;47.872;12.972;2023-05-02T12:32:14;16.20;99.90
21627;DHT22;10975;47.872;12.972;2023-05-02T12:34:41;16.30;99.90
21627;DHT22;10975;47.872;12.972;2023-05-02T12:37:08;16.40;99.90
21627;DHT22;10975;47.872;12.972;2023-05-02T12:42:08;16.50;99.90
21627;DHT22;10975;47.872;12.972;2023-05-02T12:44:37;16.60;99.90
21627;DHT22;10975;47.872;12.972;2023-05-02T12:47:04;16.80;99.90
21627;DHT22;10975;47.872;12.972;2023-05-02T12:49:31;16.80;99.90
21627;DHT22;10975;47.872;12.972;2023-05-02T12:51:57;16.90;99.90
21627;DHT22;10975;47.872;12.972;2023-05-02T12:54:25;16.80;99.90
21627;DHT22;10975;47.872;12.972;2023-05-02T12:56:52;16.80;99.90
21627;DHT22;10975;47.872;12.972;2023-05-02T13:01:51;17.00;99.90
21627;DHT22;10975;47.872;12.972;2023-05-02T13:04:18;17.10;99.90
21627;DHT22;10975;47.872;12.972;2023-05-02T13:06:45;17.20;99.90
21627;DHT22;10975;47.872;12.972;2023-05-02T13:09:12;17.10;99.90
21627;DHT22;10975;47.872;12.972;2023-05-02T13:11:39;17.10;99.90
21627;DHT22;10975;47.872;12.972;2023-05-02T13:14:06;17.00;99.90
21627;DHT22;10975;47.872;12.972;2023-05-02T13:16:32;17.00;99.90
21627;DHT22;10975;47.872;12.972;2023-05-02T13:19:02;17.00;99.90
21627;DHT22;10975;47.872;12.972;2023-05-02T13:21:28;17.10;99.90
21627;DHT22;10975;47.872;12.972;2023-05-02T13:23:57;17.00;99.90
21627;DHT22;10975;47.872;12.972;2023-05-02T13:26:24;16.90;99.90
21627;DHT22;10975;47.872;12.972;2023-05-02T13:28:51;17.00;99.90
21627;DHT22;10975;47.872;12.972;2023-05-02T13:31:17;17.00;99.90
21627;DHT22;10975;47.872;12.972;2023-05-02T13:33:44;16.80;99.90
21627;DHT22;10975;47.872;12.972;2023-05-02T13:36:11;16.70;99.90
21627;DHT22;10975;47.872;12.972;2023-05-02T13:38:37;16.50;99.90
21627;DHT22;10975;47.872;12.972;2023-05-02T13:41:04;16.40;99.90
21627;DHT22;10975;47.872;12.972;2023-05-02T13:43:31;16.40;99.90
21627;DHT22;10975;47.872;12.972;2023-05-02T13:45:58;16.40;99.90
21627;DHT22;10975;47.872;12.972;2023-05-02T13:48:24;16.60;99.90
21627;DHT22;10975;47.872;12.972;2023-05-02T13:50:51;16.70;99.90
21627;DHT22;10975;47.872;12.972;2023-05-02T13:53:18;16.80;99.90
21627;DHT22;10975;47.872;12.972;2023-05-02T13:55:45;16.80;99.90
21627;DHT22;10975;47.872;12.972;2023-05-02T13:58:11;16.90;99.90
21627;DHT22;10975;47.872;12.972;2023-05-02T14:00:38;17.00;99.90
21627;DHT22;10975;47.872;12.972;2023-05-02T14:03:05;17.00;99.90
21627;DHT22;10975;47.872;12.972;2023-05-02T14:05:32;17.00;99.90
21627;DHT22;10975;47.872;12.972;2023-05-02T14:07:59;17.00;99.90
21627;DHT22;10975;47.872;12.972;2023-05-02T14:10:25;17.00;99.90
21627;DHT22;10975;47.872;12.972;2023-05-02T14:12:52;17.10;99.90
21627;DHT22;10975;47.872;12.972;2023-05-02T14:15:19;17.10;99.90
21627;DHT22;10975;47.872;12.972;2023-05-02T14:17:47;17.00;99.90
21627;DHT22;10975;47.872;12.972;2023-05-02T14:20:14;17.00;99.90
21627;DHT22;10975;47.872;12.972;2023-05-02T14:22:42;16.90;99.90
21627;DHT22;10975;47.872;12.972;2023-05-02T14:25:08;16.90;99.90
21627;DHT22;10975;47.872;12.972;2023-05-02T14:27:35;16.90;99.90
21627;DHT22;10975;47.872;12.972;2023-05-02T14:30:02;16.90;99.90
21627;DHT22;10975;47.872;12.972;2023-05-02T14:32:29;16.80;99.90
21627;DHT22;10975;47.872;12.972;2023-05-02T14:34:56;16.60;99.90
21627;DHT22;10975;47.872;12.972;2023-05-02T14:37:23;16.60;99.90
21627;DHT22;10975;47.872;12.972;2023-05-02T14:39:50;16.50;99.90
21627;DHT22;10975;47.872;12.972;2023-05-02T14:42:21;16.50;99.90
21627;DHT22;10975;47.872;12.972;2023-05-02T14:44:48;16.40;99.90
21627;DHT22;10975;47.872;12.972;2023-05-02T14:47:15;16.30;99.90
21627;DHT22;10975;47.872;12.972;2023-05-02T14:49:42;16.30;99.90
21627;DHT22;10975;47.872;12.972;2023-05-02T14:52:09;16.20;99.90
21627;DHT22;10975;47.872;12.972;2023-05-02T14:54:36;16.20;99.90
21627;DHT22;10975;47.872;12.972;2023-05-02T14:57:03;16.10;99.90
21627;DHT22;10975;47.872;12.972;2023-05-02T14:59:29;16.10;99.90
21627;DHT22;10975;47.872;12.972;2023-05-02T15:01:56;16.10;99.90
21627;DHT22;10975;47.872;12.972;2023-05-02T15:04:24;16.00;99.90
21627;DHT22;10975;47.872;12.972;2023-05-02T15:06:53;16.00;99.90
21627;DHT22;10975;47.872;12.972;2023-05-02T15:09:21;16.00;99.90
21627;DHT22;10975;47.872;12.972;2023-05-02T15:11:48;16.00;99.90
21627;DHT22;10975;47.872;12.972;2023-05-02T15:14:15;16.10;99.90
21627;DHT22;10975;47.872;12.972;2023-05-02T15:16:42;16.00;99.90
21627;DHT22;10975;47.872;12.972;2023-05-02T15:19:08;16.00;99.90
21627;DHT22;10975;47.872;12.972;2023-05-02T15:21:35;15.80;99.90
21627;DHT22;10975;47.872;12.972;2023-05-02T15:24:02;15.30;99.90
21627;DHT22;10975;47.872;12.972;2023-05-02T15:26:29;15.00;99.90
21627;DHT22;10975;47.872;12.972;2023-05-02T15:28:56;14.70;99.90
21627;DHT22;10975;47.872;12.972;2023-05-02T15:31:23;14.60;99.90
21627;DHT22;10975;47.872;12.972;2023-05-02T15:33:50;14.60;99.90
21627;DHT22;10975;47.872;12.972;2023-05-02T15:36:17;14.60;99.90
21627;DHT22;10975;47.872;12.972;2023-05-02T15:38:43;14.60;99.90
21627;DHT22;10975;47.872;12.972;2023-05-02T15:41:10;14.70;99.90
21627;DHT22;10975;47.872;12.972;2023-05-02T15:43:37;14.70;99.90
21627;DHT22;10975;47.872;12.972;2023-05-02T15:46:04;14.60;99.90
21627;DHT22;10975;47.872;12.972;2023-05-02T15:48:31;14.60;99.90
21627;DHT22;10975;47.872;12.972;2023-05-02T15:51:01;14.60;99.90
21627;DHT22;10975;47.872;12.972;2023-05-02T15:53:28;14.50;99.90
21627;DHT22;10975;47.872;12.972;2023-05-02T15:55:55;14.40;99.90
21627;DHT22;10975;47.872;12.972;2023-05-02T15:58:22;14.20;99.90
21627;DHT22;10975;47.872;12.972;2023-05-02T16:00:48;14.10;99.90
21627;DHT22;10975;47.872;12.972;2023-05-02T16:03:18;14.10;99.90
21627;DHT22;10975;47.872;12.972;2023-05-02T16:05:45;13.90;99.90
21627;DHT22;10975;47.872;12.972;2023-05-02T16:08:12;13.90;99.90
21627;DHT22;10975;47.872;12.972;2023-05-02T16:10:39;14.00;99.90